Aérodrome :
LOGIN :

S'inscrire | Disclaimer

   EN    FR    IT 

 










Légende :    VFR   VFR Marginal   IFR   IFR Intensif   IFR Très Intensif
Visi : 
Plafond : 
>= 8 km
>= 3000ft
5 à 8 km
1000 à 3000 ft
1500m à 5 km
500 à 1000 ft
800 à 1500m
200 à 500 ft
< 800m
< 200 ft
Symboles :   Orages  Brouillard  Fortes neiges  Fortes précipitations  Vent > 20 kt
SIGMETs :   Divers  Orages  Givrage  Turbulence  Onde Orograph.  Cendres Volcan.







- Altitude de l'aérodrome : 357 ft
- Code IATA : TUF
- Voir les cartes d'approche


LFOT - Tours

DERNIER METAR :
  • 162000Z AUTO 19009KT 9999 FEW011 BKN037 BKN043 06/05 Q1010 TEMPO 23015G25KT 4000 -RA BKN006

METARs EXPIRÉS :
  • 161930Z AUTO 20009KT 9999 BKN010 BKN028 OVC034 06/05 Q1011 TEMPO 23015G25KT 4000 -RA
  • 161900Z AUTO 20010KT 9999 BKN014 BKN022 BKN034 06/04 Q1011 TEMPO 23015G25KT 4000 -RA BKN006
  • 161830Z AUTO 20011KT 9999 OVC013 06/04 Q1011 TEMPO 23015G25KT 4000 -RA BKN006
  • 161800Z AUTO 20010KT 9999 BKN017 BKN029 OVC038 06/03 Q1011 BECMG BKN012
  • 161730Z AUTO 21010KT 170V230 9999 BKN018 OVC023 07/03 Q1011 BECMG BKN012

TAF TAF LFOT
Valide du 16 à 18h jusqu'au 17 à 18h UTC


161700Z 1618/1718 23010KT 9999 BKN030
BECMG 1618/1620 BKN012
TEMPO 1620/1624 23015G25KT 4000 -RA BKN006
BECMG 1700/1701 SCT020
PROB40
TEMPO 1704/1708 BKN008
TEMPO 1711/1718 28015G25KT 4000 SHRA BKN020CB
Pas de NOTAMs connus pour ce terrain.



MET'MAP, la Météo Aéronautique d'un coup d'oeil ! - Copyright ORBIFLY Décembre 2007 - Disclaimer

ORBIFLY MET'MAP TEAM :

Programmation & Développement : Alexandra Zaïnal
Conception & Développement : Baudouin d'Aumeries
Co-Programmation & Développement : Marc-Olivier Méhu
Soutien technique & logistique : Manuel Goepfert

Contact : metmap@orbifly.com




SOURCES & CREDITS :

   NOAA